createdAt,value
2019-03-01T00:01:29.321Z,67.60
2019-03-01T00:06:28.215Z,69.10
2019-03-01T00:11:06.076Z,68.80
2019-03-01T00:15:25.313Z,68.40
2019-03-01T00:19:35.600Z,69.20
2019-03-01T00:24:00.719Z,69.50
2019-03-01T00:28:25.854Z,70.10
2019-03-01T00:32:42.095Z,71.00
2019-03-01T00:37:22.954Z,71.80
2019-03-01T00:41:54.883Z,71.80
2019-03-01T00:46:00.579Z,72.10
2019-03-01T00:50:10.125Z,72.30
2019-03-01T00:54:15.818Z,72.40
2019-03-01T00:58:21.531Z,73.90
2019-03-01T01:02:27.239Z,75.20
2019-03-01T01:06:32.950Z,76.30
2019-03-01T01:10:38.660Z,76.60
2019-03-01T01:14:44.421Z,77.50
2019-03-01T01:18:50.122Z,77.30
2019-03-01T01:22:55.790Z,77.70
2019-03-01T01:27:01.509Z,77.50
2019-03-01T01:31:07.305Z,79.20
2019-03-01T01:35:13.034Z,79.60
2019-03-01T01:39:18.732Z,80.30
2019-03-01T01:43:24.452Z,80.40
2019-03-01T01:47:30.137Z,81.40
2019-03-01T01:51:35.902Z,80.20
2019-03-01T01:55:41.612Z,81.10
2019-03-01T01:59:47.280Z,81.60
2019-03-01T02:03:52.974Z,81.30
2019-03-01T02:07:58.868Z,81.60
2019-03-01T02:12:04.698Z,82.00
2019-03-01T02:16:10.427Z,81.30
2019-03-01T02:20:16.192Z,81.50
2019-03-01T02:24:21.883Z,80.60
2019-03-01T02:28:27.582Z,78.90
2019-03-01T02:32:40.760Z,79.00
2019-03-01T02:36:46.436Z,79.10
2019-03-01T02:40:52.111Z,78.80
2019-03-01T02:44:57.797Z,79.70
2019-03-01T02:49:03.526Z,79.50
2019-03-01T02:53:09.226Z,79.60
2019-03-01T02:57:14.987Z,80.00
2019-03-01T03:01:20.669Z,80.70
2019-03-01T03:05:26.453Z,80.60
2019-03-01T03:09:32.200Z,80.20
2019-03-01T03:13:37.891Z,79.90
2019-03-01T03:17:43.575Z,79.80
2019-03-01T03:21:49.261Z,78.60
2019-03-01T03:25:54.954Z,78.30
2019-03-01T03:30:00.782Z,78.80
2019-03-01T03:34:06.850Z,80.90
2019-03-01T03:38:12.540Z,81.60
2019-03-01T03:42:18.299Z,82.10
2019-03-01T03:46:24.001Z,82.70
2019-03-01T03:50:29.684Z,83.10
2019-03-01T03:54:35.381Z,82.20
2019-03-01T03:58:41.207Z,81.00
2019-03-01T04:02:47.395Z,81.60
2019-03-01T04:06:53.084Z,81.30
2019-03-01T04:10:58.919Z,81.10
2019-03-01T04:15:07.064Z,80.40
2019-03-01T04:19:12.741Z,80.80
2019-03-01T04:23:18.435Z,79.60
2019-03-01T04:27:25.200Z,79.20
2019-03-01T04:31:30.891Z,79.10
2019-03-01T04:35:37.633Z,79.50
2019-03-01T04:39:43.369Z,79.20
2019-03-01T04:43:50.672Z,79.20
2019-03-01T04:47:56.385Z,78.70
2019-03-01T04:52:23.143Z,78.40
2019-03-01T04:56:28.908Z,78.90
2019-03-01T05:00:34.609Z,78.10
2019-03-01T05:04:40.335Z,77.80
2019-03-01T05:08:46.026Z,77.30
2019-03-01T05:12:51.795Z,78.50
2019-03-01T05:16:57.478Z,77.50
2019-03-01T05:21:03.236Z,78.20
2019-03-01T05:25:11.184Z,77.80
2019-03-01T05:29:16.857Z,77.30
2019-03-01T05:33:22.557Z,77.80
2019-03-01T05:37:28.236Z,77.70
2019-03-01T05:41:33.933Z,78.30
2019-03-01T05:45:39.653Z,77.50
2019-03-01T05:49:45.388Z,76.60
2019-03-01T05:53:51.081Z,76.30
2019-03-01T05:58:23.835Z,77.20
2019-03-01T06:02:57.642Z,79.10
2019-03-01T06:07:25.961Z,80.60
2019-03-01T06:11:39.035Z,79.40
2019-03-01T06:16:07.028Z,77.80
2019-03-01T06:20:47.756Z,76.80
2019-03-01T06:25:12.817Z,75.90
2019-03-01T06:29:37.689Z,77.10
2019-03-01T06:34:10.301Z,76.80
2019-03-01T06:38:51.994Z,77.90
2019-03-01T06:43:09.443Z,78.40
2019-03-01T06:47:45.824Z,77.80
2019-03-01T06:51:52.499Z,77.70
2019-03-01T06:55:58.177Z,76.70
2019-03-01T07:00:07.019Z,77.90
2019-03-01T07:04:14.496Z,77.50
2019-03-01T07:08:20.266Z,78.00
2019-03-01T07:12:25.968Z,77.70
2019-03-01T07:16:31.646Z,78.20
2019-03-01T07:20:37.343Z,78.80
2019-03-01T07:24:43.042Z,79.50
2019-03-01T07:28:48.736Z,79.00
2019-03-01T07:32:54.417Z,80.00
2019-03-01T07:37:00.151Z,80.30
2019-03-01T07:41:05.834Z,80.10
2019-03-01T07:45:13.645Z,78.70
2019-03-01T07:49:19.342Z,79.60
2019-03-01T07:53:26.079Z,79.70
2019-03-01T07:57:31.794Z,77.90
2019-03-01T08:01:37.559Z,77.50
2019-03-01T08:05:44.900Z,78.10
2019-03-01T08:09:50.598Z,78.70
2019-03-01T08:13:56.619Z,78.00
2019-03-01T08:18:04.759Z,77.50
2019-03-01T08:22:09.779Z,76.90
2019-03-01T08:26:15.485Z,77.90
2019-03-01T08:30:21.273Z,78.20
2019-03-01T08:34:26.953Z,77.80
2019-03-01T08:38:33.466Z,78.50
2019-03-01T08:42:39.302Z,77.00
2019-03-01T08:46:45.555Z,76.80
2019-03-01T08:50:52.274Z,76.30
2019-03-01T08:55:00.030Z,78.50
2019-03-01T08:59:05.636Z,76.70
2019-03-01T09:03:25.094Z,77.60
2019-03-01T09:07:30.959Z,75.10
2019-03-01T09:11:36.744Z,75.30
2019-03-01T09:15:42.479Z,77.20
2019-03-01T09:19:49.782Z,78.00
2019-03-01T09:23:55.899Z,76.20
2019-03-01T09:28:01.601Z,75.00
2019-03-01T09:32:07.442Z,74.60
2019-03-01T09:36:20.531Z,74.70
2019-03-01T09:40:25.522Z,76.30
2019-03-01T09:44:34.567Z,76.30
2019-03-01T09:48:39.693Z,74.40
2019-03-01T09:52:46.762Z,74.00
2019-03-01T09:56:52.615Z,75.50
2019-03-01T10:01:11.096Z,75.80
2019-03-01T10:05:16.791Z,76.00
2019-03-01T10:09:22.485Z,77.20
2019-03-01T10:13:30.299Z,78.30
2019-03-01T10:17:35.605Z,77.30
2019-03-01T10:21:42.352Z,76.90
2019-03-01T10:25:48.039Z,77.40
2019-03-01T10:29:53.734Z,76.70
2019-03-01T10:33:59.404Z,77.70
2019-03-01T10:38:05.269Z,78.50
2019-03-01T10:42:10.979Z,77.70
2019-03-01T10:46:16.677Z,78.00
2019-03-01T10:50:22.498Z,77.30
2019-03-01T10:54:28.191Z,77.40
2019-03-01T10:58:33.891Z,78.40
2019-03-01T11:02:50.224Z,79.10
2019-03-01T11:06:56.606Z,77.00
2019-03-01T11:11:02.363Z,77.90
2019-03-01T11:15:12.356Z,78.40
2019-03-01T11:19:19.586Z,79.00
2019-03-01T11:23:26.890Z,79.20
2019-03-01T11:27:32.643Z,79.40
2019-03-01T11:31:38.321Z,79.00
2019-03-01T11:35:45.170Z,79.60
2019-03-01T11:39:50.863Z,78.50
2019-03-01T11:43:56.554Z,79.30
2019-03-01T11:48:02.399Z,77.90
2019-03-01T11:52:08.082Z,78.70
2019-03-01T11:56:13.788Z,78.00
2019-03-01T12:00:25.102Z,76.30
2019-03-01T12:04:30.831Z,76.70
2019-03-01T12:08:36.568Z,76.60
2019-03-01T12:12:42.328Z,77.50
2019-03-01T12:16:48.106Z,76.20
2019-03-01T12:20:53.897Z,75.50
2019-03-01T12:24:59.917Z,76.00
2019-03-01T12:29:05.684Z,75.50
2019-03-01T12:33:11.424Z,75.40
2019-03-01T12:37:17.196Z,75.80
2019-03-01T12:41:22.905Z,74.80
2019-03-01T12:45:28.670Z,75.40
2019-03-01T12:49:34.357Z,75.30
2019-03-01T12:53:40.039Z,74.90
2019-03-01T12:57:45.873Z,72.70
2019-03-01T13:01:51.582Z,73.10
2019-03-01T13:05:57.338Z,74.00
2019-03-01T13:10:06.775Z,75.00
2019-03-01T13:14:10.582Z,76.30
2019-03-01T13:18:18.719Z,75.60
2019-03-01T13:22:24.763Z,74.80
2019-03-01T13:26:31.830Z,75.70
2019-03-01T13:30:37.518Z,74.80
2019-03-01T13:34:45.789Z,76.30
2019-03-01T13:38:50.714Z,76.10
2019-03-01T13:42:56.403Z,76.70
2019-03-01T13:47:02.133Z,73.70
2019-03-01T13:51:07.817Z,71.20
2019-03-01T13:55:18.598Z,58.00
2019-03-01T13:59:22.914Z,49.00
2019-03-01T14:03:29.614Z,42.20
2019-03-01T14:07:35.382Z,38.00
2019-03-01T14:11:41.090Z,35.10
2019-03-01T14:15:46.845Z,36.70
2019-03-01T14:19:52.495Z,34.80
2019-03-01T14:23:58.198Z,35.10
2019-03-01T14:28:05.101Z,35.10
2019-03-01T14:32:10.982Z,38.90
2019-03-01T14:36:17.238Z,43.90
2019-03-01T14:40:23.670Z,49.60
2019-03-01T14:44:30.762Z,51.60
2019-03-01T14:48:36.791Z,54.70
2019-03-01T14:52:42.521Z,54.60
2019-03-01T14:56:48.944Z,55.90
2019-03-01T15:00:59.252Z,56.50
2019-03-01T15:05:06.768Z,56.90
2019-03-01T15:09:13.116Z,54.20
2019-03-01T15:13:19.030Z,56.90
2019-03-01T15:17:24.798Z,57.50
2019-03-01T15:21:30.517Z,58.00
2019-03-01T15:25:36.249Z,56.40
2019-03-01T15:29:41.948Z,58.10
2019-03-01T15:33:47.924Z,59.40
2019-03-01T15:37:53.609Z,58.70
2019-03-01T15:41:59.351Z,59.70
2019-03-01T15:46:05.111Z,59.60
2019-03-01T15:50:13.668Z,62.00
2019-03-01T15:54:19.373Z,61.10
2019-03-01T15:58:25.103Z,63.10
2019-03-01T16:02:30.800Z,63.20
2019-03-01T16:06:38.147Z,63.70
2019-03-01T16:10:43.901Z,64.50
2019-03-01T16:14:49.583Z,65.40
2019-03-01T16:18:55.370Z,66.10
2019-03-01T16:23:01.089Z,65.50
2019-03-01T16:27:08.696Z,66.50
2019-03-01T16:31:14.595Z,67.20
2019-03-01T16:35:21.897Z,68.70
2019-03-01T16:39:27.599Z,71.60
2019-03-01T16:43:35.093Z,70.50
2019-03-01T16:47:41.980Z,70.50
2019-03-01T16:51:50.602Z,71.00
2019-03-01T16:55:55.868Z,71.90
2019-03-01T17:00:01.572Z,71.50
2019-03-01T17:04:08.891Z,71.40
2019-03-01T17:08:14.586Z,71.20
2019-03-01T17:12:22.407Z,71.60
2019-03-01T17:16:27.742Z,72.00
2019-03-01T17:20:37.400Z,72.10
2019-03-01T17:24:40.902Z,71.30
2019-03-01T17:28:46.683Z,70.80
2019-03-01T17:32:52.450Z,70.20
2019-03-01T17:36:58.277Z,71.00
2019-03-01T17:41:06.300Z,69.90
2019-03-01T17:45:26.665Z,70.20
2019-03-01T17:49:33.092Z,70.50
2019-03-01T17:53:39.731Z,70.10
2019-03-01T17:57:45.562Z,69.80
2019-03-01T18:01:51.417Z,69.60
2019-03-01T18:05:57.114Z,70.20
2019-03-01T18:10:02.868Z,70.80
2019-03-01T18:14:08.624Z,70.10
2019-03-01T18:18:14.572Z,70.30
2019-03-01T18:22:23.031Z,70.50
2019-03-01T18:26:27.665Z,70.20
2019-03-01T18:35:27.485Z,69.50
2019-03-01T18:39:33.207Z,70.00
2019-03-01T18:43:38.910Z,70.60
2019-03-01T18:47:45.027Z,70.70
2019-03-01T18:51:50.756Z,70.30
2019-03-01T18:55:56.456Z,69.90
2019-03-01T19:00:02.162Z,69.60
2019-03-01T19:04:08.788Z,69.10
2019-03-01T19:08:14.621Z,69.00
2019-03-01T19:12:21.307Z,68.50
2019-03-01T19:16:28.623Z,68.90
2019-03-01T19:20:44.720Z,68.60
2019-03-01T19:24:50.769Z,68.50
2019-03-01T19:28:59.031Z,68.00
2019-03-01T19:33:03.921Z,67.80
2019-03-01T19:37:10.178Z,68.40
2019-03-01T19:41:15.982Z,68.50
2019-03-01T19:45:21.893Z,68.60
2019-03-01T19:49:27.609Z,68.40
2019-03-01T19:53:33.314Z,68.20
2019-03-01T19:57:39.012Z,66.90
2019-03-01T20:01:44.778Z,67.40
2019-03-01T20:05:50.513Z,67.70
2019-03-01T20:09:57.451Z,68.00
2019-03-01T20:14:03.205Z,67.20
2019-03-01T20:18:09.924Z,67.60
2019-03-01T20:22:18.593Z,67.40
2019-03-01T20:26:26.861Z,66.50
2019-03-01T20:30:34.741Z,67.10
2019-03-01T20:34:40.453Z,66.90
2019-03-01T20:38:46.272Z,67.20
2019-03-01T20:42:52.116Z,66.80
2019-03-01T20:46:57.826Z,67.00
2019-03-01T20:51:03.535Z,67.30
2019-03-01T20:55:11.910Z,66.60
2019-03-01T20:59:17.622Z,67.00
2019-03-01T21:03:24.113Z,67.40
2019-03-01T21:07:30.740Z,68.30
2019-03-01T21:11:36.446Z,68.40
2019-03-01T21:15:42.231Z,69.10
2019-03-01T21:19:47.979Z,69.20
2019-03-01T21:23:53.692Z,68.20
2019-03-01T21:28:00.853Z,68.00
2019-03-01T21:32:06.899Z,67.60
2019-03-01T21:36:12.595Z,68.40
2019-03-01T21:40:18.344Z,67.60
2019-03-01T21:44:24.061Z,67.40
2019-03-01T21:48:29.761Z,66.90
2019-03-01T21:52:35.492Z,67.20
2019-03-01T21:56:55.549Z,67.10
2019-03-01T22:00:49.038Z,67.40
2019-03-01T22:04:54.754Z,66.80
2019-03-01T22:09:00.463Z,66.60
2019-03-01T22:13:07.776Z,66.30
2019-03-01T22:17:13.709Z,66.20
2019-03-01T22:21:22.827Z,66.70
2019-03-01T22:25:28.873Z,66.80
2019-03-01T22:29:34.551Z,67.20
2019-03-01T22:33:40.335Z,67.50
2019-03-01T22:37:46.986Z,66.80
2019-03-01T22:41:54.330Z,66.60
2019-03-01T22:50:11.912Z,66.00
2019-03-01T22:54:17.912Z,65.70
2019-03-01T22:58:24.513Z,65.70
2019-03-01T23:02:30.344Z,66.00
2019-03-01T23:06:36.147Z,66.80
2019-03-01T23:10:41.892Z,66.20
2019-03-01T23:14:47.605Z,66.10
2019-03-01T23:18:56.702Z,66.60
2019-03-01T23:23:00.883Z,66.80
2019-03-01T23:27:06.707Z,66.60
2019-03-01T23:31:12.516Z,66.50
2019-03-01T23:35:19.005Z,66.60
2019-03-01T23:39:25.442Z,66.20
2019-03-01T23:43:31.782Z,66.20
2019-03-01T23:47:38.367Z,66.00
2019-03-01T23:51:45.550Z,66.40
2019-03-01T23:55:54.645Z,66.00
